Time;durP1;ratioP1;P1;durP2;ratioP2;P2;SDS_P1;SDS_P2;PMS_P1;PMS_P2;Temp;Humidity;BMP_temperature;BMP_pressure;BME280_temperature;BME280_humidity;BME280_pressure;Samples;Min_cycle;Max_cycle;Signal;HPM_P1;HPM_P2
2023/08/28 00:00:46;;;;;;;6.78;6.07;;;;;;;31.42;44.17;97371.03;2082339;28;20132;-51
2023/08/28 00:01:47;;;;;;;5.00;4.60;;;;;;;31.42;43.95;97373.75;2083352;28;20073;-52
2023/08/28 00:02:47;;;;;;;6.10;5.53;;;;;;;31.41;44.04;97369.41;2080882;28;20481;-51
2023/08/28 00:03:49;;;;;;;5.60;5.10;;;;;;;31.39;44.12;97370.53;2084294;28;20057;-51
2023/08/28 00:04:50;;;;;;;6.40;5.47;;;;;;;31.42;44.09;97357.31;2081154;28;20040;-55
2023/08/28 00:05:52;;;;;;;6.65;6.05;;;;;;;31.40;44.52;97365.88;2087753;28;20076;-52
2023/08/28 00:06:53;;;;;;;6.50;5.90;;;;;;;31.40;44.25;97357.66;2085131;28;20045;-54
2023/08/28 00:07:55;;;;;;;6.45;5.85;;;;;;;31.39;43.66;97356.81;2088459;28;20491;-54
2023/08/28 00:08:56;;;;;;;6.75;6.03;;;;;;;31.39;43.62;97359.56;2085408;28;20072;-51
2023/08/28 00:09:56;;;;;;;6.70;6.10;;;;;;;31.40;43.74;97360.41;2086702;28;20049;-52
2023/08/28 00:10:58;;;;;;;5.82;5.32;;;;;;;31.38;44.15;97357.97;2087094;28;20041;-54
2023/08/28 00:11:59;;;;;;;7.18;6.47;;;;;;;31.38;43.69;97344.25;2085469;28;20144;-55
2023/08/28 00:13:01;;;;;;;7.43;5.93;;;;;;;31.39;43.25;97343.13;2086287;28;20414;-54
2023/08/28 00:14:02;;;;;;;6.55;5.95;;;;;;;31.39;43.52;97320.41;2087293;28;20076;-53
2023/08/28 00:15:04;;;;;;;7.00;6.30;;;;;;;31.39;43.54;97332.16;2088129;28;20049;-51
2023/08/28 00:16:06;;;;;;;6.78;6.07;;;;;;;31.38;43.58;97341.53;2086884;28;20064;-52
2023/08/28 00:17:07;;;;;;;7.03;6.43;;;;;;;31.37;43.44;97345.41;2086485;28;20053;-54
2023/08/28 00:18:09;;;;;;;7.05;6.45;;;;;;;31.39;43.85;97369.72;2087044;28;20092;-51
2023/08/28 00:19:10;;;;;;;6.75;6.15;;;;;;;31.39;43.83;97364.25;2086003;28;20049;-53
2023/08/28 00:20:12;;;;;;;7.68;6.97;;;;;;;31.38;43.26;97368.13;2086523;28;20041;-51
2023/08/28 00:21:13;;;;;;;7.25;6.53;;;;;;;31.38;43.44;97368.13;2086624;28;20054;-51
2023/08/28 00:22:15;;;;;;;6.72;6.07;;;;;;;31.38;43.46;97362.63;2083402;28;20099;-50
2023/08/28 00:23:16;;;;;;;7.18;6.35;;;;;;;31.38;43.78;97366.19;2086213;28;20347;-52
2023/08/28 00:24:18;;;;;;;6.95;6.35;;;;;;;31.37;43.56;97371.97;2085781;28;20297;-53
2023/08/28 00:25:19;;;;;;;7.18;6.47;;;;;;;31.37;43.28;97385.66;2085761;28;20052;-51
2023/08/28 00:26:21;;;;;;;6.65;5.93;;;;;;;31.37;43.74;97378.28;2085932;28;20083;-53
2023/08/28 00:27:22;;;;;;;6.57;6.07;;;;;;;31.37;43.32;97372.78;2087041;28;20397;-52
2023/08/28 00:28:24;;;;;;;11.07;6.82;;;;;;;31.38;43.29;97381.81;2086568;28;20882;-52
2023/08/28 00:29:24;;;;;;;7.32;6.63;;;;;;;31.37;43.34;97374.72;2088035;28;20109;-52
2023/08/28 00:30:26;;;;;;;6.72;6.13;;;;;;;31.37;43.53;97391.97;2085357;28;20052;-51
2023/08/28 00:31:29;;;;;;;9.00;6.53;;;;;;;31.38;43.23;97382.63;2087393;28;20048;-51
2023/08/28 00:32:30;;;;;;;9.30;6.55;;;;;;;31.37;43.13;97399.38;2087233;28;20061;-53
2023/08/28 00:33:32;;;;;;;7.03;6.35;;;;;;;31.36;43.13;97393.09;2087395;28;20493;-54
2023/08/28 00:34:33;;;;;;;6.65;6.05;;;;;;;31.37;43.53;97402.94;2086536;28;20522;-50
2023/08/28 00:35:35;;;;;;;7.57;6.88;;;;;;;31.36;43.22;97401.31;2086485;28;20041;-51
2023/08/28 00:36:36;;;;;;;7.50;6.85;;;;;;;31.38;43.07;97398.25;2085481;28;20053;-53
2023/08/28 00:37:38;;;;;;;7.30;6.63;;;;;;;31.38;43.14;97393.56;2086284;28;20106;-52
2023/08/28 00:38:39;;;;;;;9.10;7.10;;;;;;;31.37;43.37;97391.13;2085545;28;20052;-51
2023/08/28 00:39:40;;;;;;;8.95;6.95;;;;;;;31.38;43.64;97390.84;2085973;28;20106;-51
2023/08/28 00:40:41;;;;;;;10.27;8.02;;;;;;;31.37;43.07;97391.97;2086100;28;20045;-51
2023/08/28 00:41:42;;;;;;;7.55;6.85;;;;;;;31.36;43.14;97387.59;2087354;28;20044;-51
2023/08/28 00:42:44;;;;;;;8.45;6.75;;;;;;;31.37;43.43;97397.47;2087492;28;20037;-50
2023/08/28 00:43:45;;;;;;;8.68;7.82;;;;;;;31.36;42.94;97395.81;2086524;28;20364;-52
2023/08/28 00:44:47;;;;;;;9.02;7.85;;;;;;;31.37;43.48;97385.66;2086085;28;20473;-52
2023/08/28 00:45:48;;;;;;;7.53;6.57;;;;;;;31.36;43.13;97381.31;2087692;28;20053;-51
2023/08/28 00:46:51;;;;;;;7.55;6.93;;;;;;;31.36;43.64;97375.84;2086514;28;20238;-51
2023/08/28 00:47:52;;;;;;;8.10;7.28;;;;;;;31.36;43.61;97376.63;2086727;28;20056;-55
2023/08/28 00:48:54;;;;;;;7.60;6.88;;;;;;;31.36;43.08;97376.63;2085799;28;20053;-51
2023/08/28 00:49:55;;;;;;;8.32;7.45;;;;;;;31.35;43.48;97374.22;2087818;28;20048;-52
2023/08/28 00:50:58;;;;;;;9.50;6.57;;;;;;;31.36;43.36;97371.16;2086626;28;20052;-53
2023/08/28 00:51:59;;;;;;;7.35;6.68;;;;;;;31.36;43.03;97362.16;2087865;28;20077;-51
2023/08/28 00:53:01;;;;;;;7.00;6.45;;;;;;;31.36;43.38;97370.38;2084153;28;20068;-55
2023/08/28 00:54:03;;;;;;;8.18;7.47;;;;;;;31.35;43.51;97374.22;2086682;28;20124;-54
2023/08/28 00:55:05;;;;;;;10.07;6.85;;;;;;;31.35;43.59;97375.00;2086258;28;20075;-52
2023/08/28 00:56:06;;;;;;;6.88;6.28;;;;;;;31.35;43.37;97374.22;2085051;28;20060;-54
2023/08/28 00:57:09;;;;;;;7.45;6.75;;;;;;;31.35;43.70;97375.00;2084690;28;20234;-51
2023/08/28 00:58:11;;;;;;;7.30;6.60;;;;;;;31.34;43.75;97378.88;2086196;28;20532;-54
2023/08/28 00:59:15;;;;;;;7.32;6.63;;;;;;;31.35;43.73;97380.50;2085674;28;20190;-53
2023/08/28 01:00:16;;;;;;;8.07;6.53;;;;;;;31.34;43.57;97373.41;2085905;28;20423;-54
2023/08/28 01:01:17;;;;;;;7.38;6.70;;;;;;;31.36;43.28;97375.84;2088224;28;20419;-53
2023/08/28 01:02:20;;;;;;;7.38;6.72;;;;;;;31.34;43.60;97378.88;2084764;28;20044;-51
2023/08/28 01:03:21;;;;;;;8.00;6.82;;;;;;;31.35;43.69;97379.69;2085151;28;20051;-51
2023/08/28 01:04:23;;;;;;;7.45;6.55;;;;;;;31.34;43.45;97384.38;2084893;28;20065;-51
2023/08/28 01:05:33;;;;;;;7.55;6.85;;;;;;;31.34;43.72;97398.06;2087378;28;20057;-53
2023/08/28 01:06:45;;;;;;;7.70;6.93;;;;;;;31.31;43.36;97389.66;2085001;28;20523;-52
2023/08/28 01:07:56;;;;;;;7.38;6.18;;;;;;;31.31;43.59;97398.66;2076301;28;20136;-53
2023/08/28 01:09:04;;;;;;;7.68;6.97;;;;;;;31.30;44.00;97401.75;2074818;28;20132;-51
2023/08/28 01:10:13;;;;;;;7.40;6.75;;;;;;;31.32;43.75;97407.72;2076725;28;20593;-50
2023/08/28 01:11:23;;;;;;;8.63;7.78;;;;;;;31.32;43.80;97403.03;2079015;28;20513;-51
2023/08/28 01:12:33;;;;;;;10.20;7.60;;;;;;;31.30;43.68;97407.22;2075953;28;20512;-52
2023/08/28 01:13:38;;;;;;;7.25;6.55;;;;;;;31.30;43.66;97412.69;2078113;28;20064;-55
2023/08/28 01:14:50;;;;;;;7.50;6.90;;;;;;;31.30;44.09;97418.97;2078329;28;20057;-52
2023/08/28 01:15:54;;;;;;;7.30;6.47;;;;;;;31.30;44.04;97409.97;2077388;28;20057;-51
2023/08/28 01:16:59;;;;;;;8.10;6.72;;;;;;;31.30;43.72;97407.22;2073619;28;20081;-54
2023/08/28 01:18:04;;;;;;;8.05;7.25;;;;;;;31.30;44.16;97399.81;2076258;28;20046;-54
2023/08/28 01:19:11;;;;;;;7.32;6.63;;;;;;;31.32;43.98;97402.25;2076706;28;20420;-54
2023/08/28 01:20:15;;;;;;;7.55;6.85;;;;;;;31.31;43.85;97403.34;2078301;28;20065;-55
2023/08/28 01:21:18;;;;;;;7.45;6.75;;;;;;;31.30;43.85;97391.59;2079304;28;20500;-54
2023/08/28 01:22:22;;;;;;;8.20;7.25;;;;;;;31.29;43.88;97387.25;2079401;28;20045;-53
2023/08/28 01:23:28;;;;;;;6.82;6.22;;;;;;;31.29;43.83;97379.03;2080361;28;20508;-53
2023/08/28 01:24:30;;;;;;;7.65;6.95;;;;;;;31.29;43.95;97379.03;2078362;28;20144;-54
2023/08/28 01:25:34;;;;;;;6.63;5.93;;;;;;;31.30;43.88;97377.88;2079844;28;20041;-55
2023/08/28 01:26:35;;;;;;;7.60;6.90;;;;;;;31.30;44.36;97375.16;2079270;28;20053;-56
2023/08/28 01:27:37;;;;;;;7.72;6.68;;;;;;;31.31;44.34;97376.75;2079777;28;20120;-54
2023/08/28 01:28:39;;;;;;;8.80;6.70;;;;;;;31.30;43.71;97372.41;2080186;28;20061;-51
2023/08/28 01:29:40;;;;;;;7.95;7.15;;;;;;;31.29;43.90;97354.38;2080595;28;20073;-52
2023/08/28 01:30:41;;;;;;;7.03;6.32;;;;;;;31.29;43.67;97359.84;2079287;28;20049;-53
2023/08/28 01:31:42;;;;;;;7.53;6.40;;;;;;;31.29;44.29;97368.06;2079873;28;20519;-52
2023/08/28 01:32:46;;;;;;;7.57;6.78;;;;;;;31.29;43.66;97368.06;2078039;28;20045;-51
2023/08/28 01:33:51;;;;;;;7.43;6.47;;;;;;;31.29;43.85;97370.81;2078980;28;20053;-53
2023/08/28 01:34:52;;;;;;;8.10;7.32;;;;;;;31.30;43.97;97366.94;2077381;28;20113;-54
2023/08/28 01:35:59;;;;;;;8.15;7.35;;;;;;;31.30;44.34;97377.88;2081016;28;20255;-51
2023/08/28 01:37:11;;;;;;;8.13;7.32;;;;;;;31.29;44.18;97370.81;2077432;28;20052;-51
2023/08/28 01:38:23;;;;;;;7.40;6.70;;;;;;;31.28;43.99;97371.91;2079144;28;20076;-54
2023/08/28 01:39:31;;;;;;;7.28;6.68;;;;;;;31.27;44.10;97378.53;2079838;28;20042;-54
2023/08/28 01:40:39;;;;;;;7.50;6.80;;;;;;;31.27;43.85;97375.78;2077911;28;20104;-51
2023/08/28 01:41:42;;;;;;;6.95;6.35;;;;;;;31.27;44.49;97381.25;2080119;28;20342;-53
2023/08/28 01:42:45;;;;;;;8.68;7.80;;;;;;;31.28;43.98;97384.81;2078629;28;20076;-54
2023/08/28 01:43:49;;;;;;;7.47;6.80;;;;;;;31.28;43.88;97396.56;2079520;28;20041;-55
2023/08/28 01:44:54;;;;;;;7.05;6.35;;;;;;;31.30;44.24;97404.47;2078010;28;20046;-54
2023/08/28 01:45:55;;;;;;;9.85;7.18;;;;;;;31.27;43.98;97397.69;2080246;28;20049;-55
2023/08/28 01:46:57;;;;;;;8.55;6.97;;;;;;;31.29;43.93;97408.34;2078469;28;20059;-52
2023/08/28 01:47:59;;;;;;;9.02;6.72;;;;;;;31.29;44.01;97414.63;2080009;28;20081;-55
2023/08/28 01:49:00;;;;;;;9.05;8.15;;;;;;;31.29;44.20;97408.34;2077108;28;20050;-55
2023/08/28 01:50:01;;;;;;;7.30;6.65;;;;;;;31.29;43.87;97409.16;2078731;28;20080;-55
2023/08/28 01:51:04;;;;;;;8.82;8.02;;;;;;;31.28;44.32;97404.78;2079056;28;20091;-50
2023/08/28 01:52:06;;;;;;;8.07;6.63;;;;;;;31.28;44.35;97402.03;2080151;28;20049;-53
2023/08/28 01:53:07;;;;;;;8.25;6.97;;;;;;;31.30;43.76;97418.19;2088293;28;20052;-51
2023/08/28 01:54:09;;;;;;;7.88;7.10;;;;;;;31.29;44.25;97436.56;2087100;28;20312;-53
2023/08/28 01:55:10;;;;;;;8.43;7.57;;;;;;;31.29;44.20;97444.78;2088780;28;20072;-51
2023/08/28 01:56:19;;;;;;;8.02;7.22;;;;;;;31.27;44.16;97449.75;2084345;28;20145;-55
2023/08/28 01:57:19;;;;;;;7.15;6.50;;;;;;;31.27;44.36;97449.75;2078316;28;20530;-55
2023/08/28 01:58:21;;;;;;;8.52;7.10;;;;;;;31.27;44.40;97444.28;2086824;28;20041;-55
2023/08/28 01:59:22;;;;;;;6.25;5.75;;;;;;;31.27;44.03;97447.00;2088066;28;20052;-52
2023/08/28 02:00:24;;;;;;;7.13;6.45;;;;;;;31.28;44.01;97442.34;2088510;28;20045;-55
2023/08/28 02:01:26;;;;;;;7.72;7.03;;;;;;;31.28;43.96;97445.88;2082519;28;20046;-54
2023/08/28 02:02:28;;;;;;;9.48;7.10;;;;;;;31.28;44.46;97439.59;2079658;28;20065;-52
2023/08/28 02:03:30;;;;;;;8.13;7.32;;;;;;;31.28;44.34;97434.91;2077667;28;20048;-53
2023/08/28 02:04:32;;;;;;;7.78;6.97;;;;;;;31.28;43.90;97439.59;2077820;28;20041;-53
2023/08/28 02:05:33;;;;;;;7.22;6.53;;;;;;;31.28;43.91;97447.81;2076985;28;20073;-52
2023/08/28 02:06:33;;;;;;;7.30;6.70;;;;;;;31.28;44.43;97448.63;2077817;28;20046;-54
2023/08/28 02:07:35;;;;;;;9.82;7.15;;;;;;;31.28;43.93;97451.34;2078149;28;20045;-51
2023/08/28 02:08:36;;;;;;;8.40;7.15;;;;;;;31.28;44.10;97451.34;2077383;28;20080;-48
2023/08/28 02:09:38;;;;;;;8.18;7.22;;;;;;;31.28;44.25;97456.84;2080408;28;20045;-50
2023/08/28 02:10:39;;;;;;;7.13;6.43;;;;;;;31.28;44.16;97456.84;2078038;28;20072;-51
2023/08/28 02:11:43;;;;;;;8.32;7.53;;;;;;;31.29;44.36;97463.94;2079446;28;20405;-47
2023/08/28 02:12:43;;;;;;;7.03;6.38;;;;;;;31.29;44.36;97458.47;2075778;28;20057;-51
2023/08/28 02:13:44;;;;;;;7.78;6.88;;;;;;;31.29;44.45;97454.94;2078491;28;20420;-53
2023/08/28 02:14:46;;;;;;;8.80;6.95;;;;;;;31.29;44.02;97447.50;2078150;28;20049;-50
2023/08/28 02:15:47;;;;;;;7.78;7.00;;;;;;;31.28;44.38;97445.06;2079857;28;20057;-51
2023/08/28 02:16:47;;;;;;;7.05;6.40;;;;;;;31.28;44.18;97453.28;2078900;28;20136;-49
2023/08/28 02:17:49;;;;;;;9.45;7.28;;;;;;;31.25;44.45;97457.47;2079674;28;20050;-51
2023/08/28 02:18:50;;;;;;;6.88;6.25;;;;;;;31.27;44.19;97457.16;2076278;28;20641;-50
2023/08/28 02:19:52;;;;;;;8.15;7.35;;;;;;;31.27;43.98;97468.94;2080182;28;20148;-52
2023/08/28 02:20:53;;;;;;;8.27;7.50;;;;;;;31.27;44.33;97479.88;2075237;28;20041;-51
2023/08/28 02:21:55;;;;;;;9.38;6.93;;;;;;;31.28;44.35;97494.38;2080070;28;20080;-51
2023/08/28 02:22:56;;;;;;;7.43;6.72;;;;;;;31.27;44.29;97490.84;2084661;28;20460;-50
2023/08/28 02:23:58;;;;;;;7.85;7.05;;;;;;;31.28;44.42;97492.44;2086266;28;20052;-48
2023/08/28 02:24:58;;;;;;;7.88;7.05;;;;;;;31.27;44.22;97482.63;2084887;28;20065;-52
2023/08/28 02:26:00;;;;;;;7.72;6.45;;;;;;;31.27;44.50;97482.63;2086736;28;20072;-52
2023/08/28 02:27:03;;;;;;;7.53;6.70;;;;;;;31.28;44.02;97477.94;2086830;28;20045;-48
2023/08/28 02:28:04;;;;;;;7.57;6.82;;;;;;;31.27;44.05;97474.41;2086552;28;20040;-48
2023/08/28 02:29:06;;;;;;;8.20;7.47;;;;;;;31.26;44.35;97478.28;2085353;28;20056;-50
2023/08/28 02:30:09;;;;;;;9.27;7.03;;;;;;;31.25;44.30;97473.91;2086821;28;20048;-50
2023/08/28 02:31:11;;;;;;;7.32;6.53;;;;;;;31.26;44.33;97475.53;2084980;28;20079;-49
2023/08/28 02:32:11;;;;;;;7.78;7.00;;;;;;;31.25;44.60;97479.38;2086577;28;20048;-48
2023/08/28 02:33:13;;;;;;;7.38;6.78;;;;;;;31.25;44.37;97476.66;2086500;28;20229;-50
2023/08/28 02:34:14;;;;;;;7.07;6.38;;;;;;;31.26;44.67;97474.72;2087084;28;20178;-49
2023/08/28 02:35:16;;;;;;;7.80;7.10;;;;;;;31.26;44.51;97477.44;2085847;28;20044;-48
2023/08/28 02:36:17;;;;;;;8.93;7.07;;;;;;;31.25;44.42;97473.09;2086138;28;20049;-51
2023/08/28 02:37:19;;;;;;;7.38;6.75;;;;;;;31.25;44.05;97482.13;2084731;28;20313;-50
2023/08/28 02:38:19;;;;;;;7.15;6.47;;;;;;;31.25;44.53;97473.91;2083342;28;20109;-48
2023/08/28 02:39:20;;;;;;;7.18;6.55;;;;;;;31.26;44.44;97480.19;2086845;28;20045;-48
2023/08/28 02:40:22;;;;;;;7.43;6.82;;;;;;;31.26;44.57;97474.72;2083984;28;20045;-49
2023/08/28 02:41:23;;;;;;;7.50;6.80;;;;;;;31.26;44.11;97482.91;2087255;28;20064;-51
2023/08/28 02:42:26;;;;;;;7.53;6.70;;;;;;;31.26;44.53;97502.09;2087176;28;20503;-48
2023/08/28 02:43:27;;;;;;;7.78;6.97;;;;;;;31.24;44.67;97521.59;2085985;28;20045;-52
2023/08/28 02:44:28;;;;;;;10.77;6.68;;;;;;;31.26;44.54;97515.78;2081130;28;20567;-51
2023/08/28 02:45:29;;;;;;;7.93;5.90;;;;;;;31.26;43.98;97496.63;2082289;28;20037;-51
2023/08/28 02:46:31;;;;;;;7.57;6.53;;;;;;;31.24;44.14;97483.25;2087026;28;20049;-52
2023/08/28 02:47:32;;;;;;;8.38;7.53;;;;;;;31.24;44.24;97482.44;2079806;28;20065;-51
2023/08/28 02:48:34;;;;;;;7.40;6.70;;;;;;;31.25;44.61;97479.38;2081667;28;20052;-52
2023/08/28 02:49:34;;;;;;;7.13;6.53;;;;;;;31.24;44.24;97475.03;2085234;28;20147;-48
2023/08/28 02:50:36;;;;;;;7.60;6.88;;;;;;;31.24;44.23;97472.31;2086744;28;20090;-52
2023/08/28 02:51:38;;;;;;;8.13;6.30;;;;;;;31.25;44.76;97459.41;2087306;28;20079;-51
2023/08/28 02:52:38;;;;;;;7.82;7.10;;;;;;;31.24;44.69;97476.97;2085220;28;20052;-51
2023/08/28 02:53:39;;;;;;;7.65;6.53;;;;;;;31.23;44.12;97453.44;2086481;28;20140;-49
2023/08/28 02:54:41;;;;;;;7.63;6.93;;;;;;;31.21;44.53;97415.41;2087091;28;20048;-51
2023/08/28 02:55:42;;;;;;;8.40;6.15;;;;;;;31.21;44.12;97422.81;2086251;28;20520;-52
2023/08/28 02:56:44;;;;;;;7.53;6.57;;;;;;;31.23;44.32;97413.16;2085435;28;20048;-50
2023/08/28 02:57:46;;;;;;;7.70;7.00;;;;;;;31.21;44.13;97401.72;2084232;28;20056;-48
2023/08/28 02:58:47;;;;;;;7.53;6.82;;;;;;;31.22;44.68;97403.31;2089040;28;20087;-52
2023/08/28 02:59:49;;;;;;;7.05;6.13;;;;;;;31.22;44.26;97397.84;2084876;28;20795;-51
2023/08/28 03:00:50;;;;;;;7.60;6.90;;;;;;;31.22;44.59;97392.38;2077653;28;20294;-49
2023/08/28 03:01:51;;;;;;;7.22;6.50;;;;;;;31.21;44.45;97390.75;2086841;28;20440;-52
2023/08/28 03:02:52;;;;;;;7.28;6.53;;;;;;;31.21;44.75;97390.75;2087868;28;20058;-53
2023/08/28 03:03:54;;;;;;;8.18;6.30;;;;;;;31.20;44.60;97394.59;2083413;28;20056;-55
2023/08/28 03:04:55;;;;;;;7.25;6.63;;;;;;;31.22;44.71;97383.34;2080316;28;20608;-52
2023/08/28 03:05:57;;;;;;;7.28;6.57;;;;;;;31.21;44.24;97374.31;2083660;28;20131;-50
2023/08/28 03:06:59;;;;;;;6.93;6.30;;;;;;;31.20;44.29;97366.41;2042352;28;1254845;-52
2023/08/28 03:07:59;;;;;;;6.60;6.00;;;;;;;31.20;44.29;97349.97;2084357;28;20393;-52
2023/08/28 03:09:01;;;;;;;6.82;6.18;;;;;;;31.21;44.57;97357.09;2088006;28;20136;-52
2023/08/28 03:10:03;;;;;;;7.05;6.38;;;;;;;31.19;44.41;97343.69;2085804;28;20057;-53
2023/08/28 03:11:04;;;;;;;8.05;7.28;;;;;;;31.20;44.16;97339.81;2087042;28;20395;-52
2023/08/28 03:12:06;;;;;;;9.05;7.20;;;;;;;31.20;44.28;97315.16;2083311;28;20080;-52
2023/08/28 03:13:08;;;;;;;6.90;6.30;;;;;;;31.19;44.63;97301.81;2088366;28;20045;-52
2023/08/28 03:14:10;;;;;;;6.78;6.07;;;;;;;31.18;44.69;97287.31;2080058;28;20050;-51
2023/08/28 03:15:11;;;;;;;7.15;6.55;;;;;;;31.18;44.40;97254.44;2083615;28;20504;-52
2023/08/28 03:16:13;;;;;;;7.57;6.78;;;;;;;31.19;44.73;97211.44;2085296;28;20067;-52
2023/08/28 03:17:13;;;;;;;7.25;6.57;;;;;;;31.18;44.33;97199.66;2085318;28;21877;-53
2023/08/28 03:18:15;;;;;;;6.20;5.63;;;;;;;31.19;44.42;97209.50;2083518;28;20079;-54
2023/08/28 03:19:16;;;;;;;6.97;6.38;;;;;;;31.19;44.68;97223.19;2085647;28;20048;-54
2023/08/28 03:20:18;;;;;;;6.88;6.18;;;;;;;31.18;44.34;97221.59;2077162;28;20411;-54
2023/08/28 03:21:19;;;;;;;7.40;6.55;;;;;;;31.18;44.34;97248.97;2079614;28;20041;-55
2023/08/28 03:22:20;;;;;;;7.22;6.53;;;;;;;31.18;44.56;97273.63;2077529;28;20053;-49
2023/08/28 03:23:21;;;;;;;7.05;6.45;;;;;;;31.18;44.71;97270.88;2080190;28;20041;-50
2023/08/28 03:24:23;;;;;;;8.95;6.22;;;;;;;31.18;44.19;97298.28;2083512;28;20041;-49
2023/08/28 03:25:24;;;;;;;6.55;5.95;;;;;;;31.19;44.24;97301.81;2084232;28;20048;-47
2023/08/28 03:26:28;;;;;;;7.25;6.55;;;;;;;31.17;44.27;97313.06;2082281;28;20332;-48
2023/08/28 03:27:29;;;;;;;7.43;6.30;;;;;;;31.16;44.31;97323.22;2084808;28;20411;-50
2023/08/28 03:28:32;;;;;;;7.63;6.93;;;;;;;31.17;44.77;97318.56;2075347;28;20046;-49
2023/08/28 03:29:33;;;;;;;7.00;5.97;;;;;;;31.18;44.71;97292.78;2082014;28;20456;-49
2023/08/28 03:30:34;;;;;;;6.47;5.90;;;;;;;31.17;44.21;97291.16;2082291;28;20056;-51
2023/08/28 03:31:36;;;;;;;6.65;5.78;;;;;;;31.16;44.73;97295.03;2085127;28;20048;-48
2023/08/28 03:32:36;;;;;;;7.28;6.50;;;;;;;31.16;44.16;97289.56;2083297;28;20091;-54
2023/08/28 03:33:37;;;;;;;9.55;6.35;;;;;;;31.15;44.53;97266.84;2084460;28;20071;-52
2023/08/28 03:34:39;;;;;;;6.95;6.35;;;;;;;31.15;44.59;97250.41;2083176;28;20064;-54
2023/08/28 03:35:40;;;;;;;6.28;5.78;;;;;;;31.16;44.78;97237.53;2086388;28;20045;-51
2023/08/28 03:36:42;;;;;;;6.07;5.45;;;;;;;31.17;44.64;97244.59;2074526;28;20063;-54
2023/08/28 03:37:44;;;;;;;7.07;6.38;;;;;;;31.15;44.71;97274.25;2083767;28;20083;-50
2023/08/28 03:38:45;;;;;;;7.00;5.60;;;;;;;31.14;44.65;97270.69;2083036;28;20049;-51
2023/08/28 03:39:47;;;;;;;7.15;6.38;;;;;;;31.15;44.19;97266.84;2083720;28;20041;-54
2023/08/28 03:40:48;;;;;;;5.28;4.75;;;;;;;31.15;44.61;97268.78;2084532;28;20348;-50
2023/08/28 03:41:48;;;;;;;7.15;6.10;;;;;;;31.15;44.76;97269.59;2084375;28;20052;-48
2023/08/28 03:42:50;;;;;;;7.25;6.35;;;;;;;31.13;44.42;97271.84;2082619;28;20521;-50
2023/08/28 03:43:52;;;;;;;6.63;6.00;;;;;;;31.15;44.67;97255.91;2083016;28;20049;-48
2023/08/28 03:44:54;;;;;;;6.43;5.80;;;;;;;31.15;44.39;97272.31;2082416;28;20057;-48
2023/08/28 03:45:55;;;;;;;6.85;6.18;;;;;;;31.15;44.22;97271.53;2083136;28;20045;-51
2023/08/28 03:46:57;;;;;;;7.55;6.03;;;;;;;31.14;44.78;97280.84;2084386;28;20130;-54
2023/08/28 03:47:58;;;;;;;6.95;6.13;;;;;;;31.14;44.25;97281.66;2083194;28;20056;-49
2023/08/28 03:48:59;;;;;;;6.80;6.10;;;;;;;31.14;44.23;97278.09;2082529;28;20045;-51
2023/08/28 03:50:00;;;;;;;6.13;5.53;;;;;;;31.14;44.18;97275.38;2082550;28;20290;-52
2023/08/28 03:51:02;;;;;;;6.05;5.40;;;;;;;31.14;44.18;97289.06;2084363;28;20056;-49
2023/08/28 03:52:03;;;;;;;5.22;4.72;;;;;;;31.14;44.25;97292.59;2080779;28;20567;-50
2023/08/28 03:53:05;;;;;;;6.40;5.78;;;;;;;31.14;44.43;97286.31;2075833;28;20351;-51
2023/08/28 03:54:11;;;;;;;7.03;6.35;;;;;;;31.13;44.18;97285.53;2078556;28;20069;-51
2023/08/28 03:55:12;;;;;;;6.18;5.38;;;;;;;31.12;44.65;97289.41;2084454;28;20048;-49
2023/08/28 03:56:13;;;;;;;7.18;5.53;;;;;;;31.12;44.46;97303.09;2079033;28;20094;-51
2023/08/28 03:57:14;;;;;;;6.18;5.60;;;;;;;31.12;44.19;97283.09;2073090;28;20408;-50
2023/08/28 03:58:17;;;;;;;6.85;5.80;;;;;;;31.12;44.28;97283.91;2079500;28;20044;-52
2023/08/28 03:59:21;;;;;;;5.97;5.47;;;;;;;31.12;44.68;97283.09;2081991;28;20045;-48
2023/08/28 04:00:23;;;;;;;5.65;5.15;;;;;;;31.11;44.53;97287.75;2076567;28;20087;-48
2023/08/28 04:01:24;;;;;;;6.40;5.80;;;;;;;31.12;44.19;97277.63;2073797;28;20038;-48
2023/08/28 04:02:26;;;;;;;6.35;5.60;;;;;;;31.11;44.59;97276.81;2079435;28;20053;-51
2023/08/28 04:03:27;;;;;;;5.90;5.30;;;;;;;31.09;44.50;97273.59;2085289;28;20076;-50
2023/08/28 04:04:28;;;;;;;5.30;4.80;;;;;;;31.11;44.47;97271.34;2076585;28;20496;-51
2023/08/28 04:05:32;;;;;;;6.50;5.63;;;;;;;31.11;44.27;97268.59;2079987;28;20048;-51
2023/08/28 04:06:34;;;;;;;6.57;5.97;;;;;;;31.12;44.34;97266.66;2081352;28;20047;-53
2023/08/28 04:07:35;;;;;;;6.30;5.80;;;;;;;31.11;44.35;97256.84;2084118;28;20325;-48
2023/08/28 04:08:37;;;;;;;5.53;5.03;;;;;;;31.10;44.46;97252.50;2076275;28;20045;-49
2023/08/28 04:09:37;;;;;;;6.35;5.68;;;;;;;31.10;44.69;97255.25;2076573;28;20492;-48
2023/08/28 04:10:38;;;;;;;5.65;5.15;;;;;;;31.10;44.74;97252.50;2074413;28;20049;-48
2023/08/28 04:11:40;;;;;;;5.57;5.07;;;;;;;31.09;44.63;97248.97;2084743;28;20061;-48
2023/08/28 04:12:41;;;;;;;6.50;5.38;;;;;;;31.09;44.42;97243.47;2082203;28;20045;-49
2023/08/28 04:13:43;;;;;;;7.05;5.10;;;;;;;31.10;44.66;97252.50;2075415;28;20136;-51
2023/08/28 04:14:45;;;;;;;6.95;5.22;;;;;;;31.10;44.41;97241.53;2072978;28;20045;-53
2023/08/28 04:15:47;;;;;;;5.30;4.82;;;;;;;31.10;44.40;97241.53;2081765;28;20053;-49
2023/08/28 04:16:49;;;;;;;6.07;4.75;;;;;;;31.09;44.55;97234.44;2080865;28;20064;-52
2023/08/28 04:17:51;;;;;;;5.70;5.20;;;;;;;31.08;44.70;97232.84;2074736;28;20045;-50
2023/08/28 04:18:52;;;;;;;5.85;5.35;;;;;;;31.07;44.75;97232.03;2074446;28;20053;-51
2023/08/28 04:19:55;;;;;;;5.22;4.82;;;;;;;31.09;44.52;97234.44;2083703;28;20040;-53
2023/08/28 04:20:56;;;;;;;6.38;5.72;;;;;;;31.08;44.54;97230.91;2084373;28;20522;-52
2023/08/28 04:21:58;;;;;;;5.93;5.25;;;;;;;31.08;44.71;97233.63;2082983;28;20055;-49
2023/08/28 04:22:59;;;;;;;6.65;5.63;;;;;;;31.07;44.44;97236.72;2084690;28;20526;-52
2023/08/28 04:24:00;;;;;;;7.75;6.10;;;;;;;31.08;44.41;97233.63;2081716;28;20207;-52
2023/08/28 04:25:01;;;;;;;5.68;4.55;;;;;;;31.10;44.49;97236.06;2084827;28;20045;-49
2023/08/28 04:26:03;;;;;;;5.97;5.47;;;;;;;31.09;44.70;97234.44;2082889;28;20049;-51
2023/08/28 04:27:04;;;;;;;5.40;4.78;;;;;;;31.09;44.07;97239.91;2084059;28;20406;-49
2023/08/28 04:28:06;;;;;;;6.00;5.32;;;;;;;31.08;44.28;97238.31;2083899;28;20056;-51
2023/08/28 04:29:07;;;;;;;8.82;5.13;;;;;;;31.08;44.27;97228.16;2083400;28;20079;-49
2023/08/28 04:30:11;;;;;;;10.38;5.35;;;;;;;31.09;44.29;97234.44;2081944;28;20056;-50
2023/08/28 04:31:13;;;;;;;5.28;4.78;;;;;;;31.08;44.27;97238.31;2081324;28;20055;-50
2023/08/28 04:32:15;;;;;;;5.80;4.95;;;;;;;31.07;44.17;97232.03;2081336;28;20052;-49
2023/08/28 04:33:16;;;;;;;5.30;4.80;;;;;;;31.07;44.33;97231.22;2081788;28;20046;-51
2023/08/28 04:34:17;;;;;;;8.18;4.95;;;;;;;31.08;44.17;97224.63;2083979;28;20053;-52
2023/08/28 04:35:18;;;;;;;6.55;4.15;;;;;;;31.07;44.42;97225.75;2086348;28;20068;-50
2023/08/28 04:36:20;;;;;;;6.40;5.28;;;;;;;31.06;44.54;97229.59;2088365;28;20052;-50
2023/08/28 04:37:22;;;;;;;6.05;4.75;;;;;;;31.06;44.80;97224.13;2085942;28;20507;-50
2023/08/28 04:38:24;;;;;;;5.53;5.03;;;;;;;31.06;44.68;97224.13;2086707;28;20060;-52
2023/08/28 04:39:25;;;;;;;4.70;4.20;;;;;;;31.06;44.54;97229.59;2079783;28;20041;-51
2023/08/28 04:40:25;;;;;;;7.90;5.45;;;;;;;31.06;44.50;97224.13;2077243;28;20060;-51
2023/08/28 04:41:27;;;;;;;6.38;4.05;;;;;;;31.06;44.45;97224.13;2076908;28;20045;-50
2023/08/28 04:42:28;;;;;;;5.43;4.72;;;;;;;31.04;44.56;97221.72;2078559;28;20072;-49
2023/08/28 04:43:29;;;;;;;4.45;4.05;;;;;;;31.06;44.43;97224.94;2077019;28;20526;-48
2023/08/28 04:44:30;;;;;;;6.15;4.60;;;;;;;31.05;44.29;97222.53;2079021;28;20072;-49
2023/08/28 04:45:33;;;;;;;4.40;4.00;;;;;;;31.07;44.76;97231.22;2076513;28;20077;-51
2023/08/28 04:46:35;;;;;;;5.13;4.20;;;;;;;31.06;44.41;97229.59;2077386;28;20041;-50
2023/08/28 04:47:36;;;;;;;5.03;4.15;;;;;;;31.06;44.62;97229.59;2076046;28;20795;-48
2023/08/28 04:48:37;;;;;;;4.32;4.03;;;;;;;31.05;44.37;97223.31;2075892;28;20135;-49
2023/08/28 04:49:38;;;;;;;4.35;3.95;;;;;;;31.05;44.64;97236.22;2075250;28;20073;-48
2023/08/28 04:50:40;;;;;;;3.95;3.55;;;;;;;31.05;44.72;97230.75;2079428;28;20053;-50
2023/08/28 04:51:41;;;;;;;4.68;4.20;;;;;;;31.04;44.28;97227.19;2078124;28;20102;-50
2023/08/28 04:52:42;;;;;;;5.10;4.40;;;;;;;31.04;44.72;97221.72;2078824;28;20049;-48